createdAt,value
2019-02-23T00:00:03.978Z,95258.58
2019-02-23T00:02:31.464Z,95258.58
2019-02-23T00:04:58.878Z,95280.59
2019-02-23T00:07:26.317Z,95289.31
2019-02-23T00:09:53.747Z,95302.14
2019-02-23T00:12:21.145Z,95301.88
2019-02-23T00:14:48.592Z,95313.11
2019-02-23T00:17:16.022Z,95328.52
2019-02-23T00:19:43.493Z,95336.63
2019-02-23T00:22:10.852Z,95345.11
2019-02-23T00:24:38.298Z,95360.55
2019-02-23T00:27:05.776Z,95375.98
2019-02-23T00:29:33.151Z,95383.59
2019-02-23T00:32:00.608Z,95394.22
2019-02-23T00:34:28.070Z,95416.44
2019-02-23T00:36:55.505Z,95404.44
2019-02-23T00:39:22.884Z,95421.83
2019-02-23T00:41:50.306Z,95437.62
2019-02-23T00:44:17.790Z,95455.84
2019-02-23T00:46:45.220Z,95468.27
2019-02-23T00:49:12.614Z,95476.49
2019-02-23T00:51:40.171Z,95481.73
2019-02-23T00:54:07.719Z,95481.73
2019-02-23T00:56:35.162Z,95496.34
2019-02-23T00:59:02.634Z,95492.66
2019-02-23T01:01:30.035Z,95492.66
2019-02-23T01:03:57.510Z,95512.55
2019-02-23T01:06:24.989Z,95520.88
2019-02-23T01:08:52.465Z,95524.12
2019-02-23T01:11:19.879Z,95532.08
2019-02-23T01:13:47.332Z,95537.70
2019-02-23T01:16:14.791Z,95536.58
2019-02-23T01:18:42.361Z,95536.58
2019-02-23T01:21:09.783Z,95541.19
2019-02-23T01:23:37.217Z,95555.22
2019-02-23T01:26:04.662Z,95554.40
2019-02-23T01:28:32.185Z,95556.39
2019-02-23T01:30:59.703Z,95556.39
2019-02-23T01:33:27.099Z,95552.97
2019-02-23T01:35:54.541Z,95559.98
2019-02-23T01:38:22.029Z,95576.60
2019-02-23T01:40:49.558Z,95576.60
2019-02-23T01:43:17.010Z,95583.02
2019-02-23T01:45:44.460Z,95583.16
2019-02-23T01:48:11.851Z,95593.06
2019-02-23T01:50:39.282Z,95598.16
2019-02-23T01:53:06.862Z,95598.16
2019-02-23T01:55:34.250Z,95602.33
2019-02-23T01:58:01.664Z,95598.72
2019-02-23T02:00:29.701Z,95612.74
2019-02-23T02:02:57.361Z,95612.74
2019-02-23T02:05:24.785Z,95615.27
2019-02-23T02:07:52.216Z,95626.74
2019-02-23T02:10:20.010Z,95637.22
2019-02-23T02:12:47.511Z,95632.67
2019-02-23T02:15:15.159Z,95632.67
2019-02-23T02:17:42.692Z,95637.51
2019-02-23T02:20:11.552Z,95645.72
2019-02-23T02:22:39.240Z,95653.42
2019-02-23T02:25:07.141Z,95666.42
2019-02-23T02:27:34.499Z,95669.94
2019-02-23T02:30:01.983Z,95685.55
2019-02-23T02:32:29.433Z,95685.55
2019-02-23T02:34:56.861Z,95699.42
2019-02-23T02:37:24.422Z,95709.71
2019-02-23T02:39:52.016Z,95709.71
2019-02-23T02:42:19.422Z,95709.31
2019-02-23T02:44:46.986Z,95713.06
2019-02-23T02:47:14.510Z,95725.06
2019-02-23T02:49:41.880Z,95728.27
2019-02-23T02:52:09.322Z,95739.03
2019-02-23T02:54:36.910Z,95749.49
2019-02-23T02:57:04.557Z,95749.49
2019-02-23T02:59:31.982Z,95763.87
2019-02-23T03:01:59.425Z,95763.87
2019-02-23T03:04:26.877Z,95761.53
2019-02-23T03:06:54.473Z,95761.41
2019-02-23T03:09:21.996Z,95775.30
2019-02-23T03:11:49.470Z,95775.30
2019-02-23T03:14:16.871Z,95779.91
2019-02-23T03:16:44.324Z,95788.06
2019-02-23T03:19:11.807Z,95787.41
2019-02-23T03:21:39.192Z,95787.61
2019-02-23T03:24:06.666Z,95790.80
2019-02-23T03:26:34.108Z,95772.03
2019-02-23T03:29:01.491Z,95797.96
2019-02-23T03:31:28.911Z,95793.57
2019-02-23T03:33:56.372Z,95786.75
2019-02-23T03:36:24.074Z,95798.27
2019-02-23T03:38:51.499Z,95796.59
2019-02-23T03:41:18.939Z,95806.07
2019-02-23T03:43:46.319Z,95806.07
2019-02-23T03:46:13.812Z,95815.24
2019-02-23T03:48:41.258Z,95815.24
2019-02-23T03:51:08.654Z,95818.28
2019-02-23T03:53:36.221Z,95819.83
2019-02-23T03:56:03.815Z,95827.23
2019-02-23T03:58:31.274Z,95827.23
2019-02-23T04:00:58.834Z,95829.81
2019-02-23T04:03:26.397Z,95829.81
2019-02-23T04:05:53.880Z,95830.96
2019-02-23T04:08:21.335Z,95834.93
2019-02-23T04:10:48.777Z,95841.69
2019-02-23T04:13:16.232Z,95842.46
2019-02-23T04:15:43.676Z,95836.66
2019-02-23T04:18:11.142Z,95846.26
2019-02-23T04:20:38.598Z,95849.31
2019-02-23T04:23:06.060Z,95859.98
2019-02-23T04:25:33.555Z,95886.13
2019-02-23T04:28:00.934Z,95886.13
2019-02-23T04:30:28.478Z,95881.44
2019-02-23T04:32:55.944Z,95889.33
2019-02-23T04:35:23.446Z,95906.70
2019-02-23T04:37:50.847Z,95908.02
2019-02-23T04:40:18.321Z,95921.20
2019-02-23T04:42:45.809Z,95921.20
2019-02-23T04:45:13.287Z,95920.17
2019-02-23T04:47:41.079Z,95913.94
2019-02-23T04:50:08.806Z,95919.80
2019-02-23T04:52:36.298Z,95923.16
2019-02-23T04:55:04.113Z,95911.13
2019-02-23T04:57:31.794Z,95923.84
2019-02-23T04:59:59.354Z,95923.84
2019-02-23T05:02:26.777Z,95927.81
2019-02-23T05:04:54.272Z,95935.95
2019-02-23T05:07:21.782Z,95945.23
2019-02-23T05:09:49.281Z,95945.22
2019-02-23T05:12:16.938Z,95936.91
2019-02-23T05:14:44.844Z,95955.37
2019-02-23T05:17:12.399Z,95951.92
2019-02-23T05:19:39.908Z,95966.12
2019-02-23T05:22:07.601Z,95972.02
2019-02-23T05:24:35.359Z,95985.15
2019-02-23T05:27:02.844Z,95985.15
2019-02-23T05:29:30.571Z,95995.14
2019-02-23T05:31:58.392Z,95995.14
2019-02-23T05:34:25.924Z,96008.19
2019-02-23T05:36:53.502Z,96018.44
2019-02-23T05:39:20.938Z,96015.77
2019-02-23T05:41:48.430Z,96025.16
2019-02-23T05:44:15.911Z,96050.98
2019-02-23T05:46:43.881Z,96050.07
2019-02-23T05:49:11.408Z,96054.69
2019-02-23T05:51:39.283Z,96062.02
2019-02-23T05:54:07.036Z,96062.02
2019-02-23T05:56:34.632Z,96060.33
2019-02-23T05:59:02.450Z,96063.77
2019-02-23T06:01:30.506Z,96063.77
2019-02-23T06:03:58.160Z,96070.77
2019-02-23T06:06:25.658Z,96078.57
2019-02-23T06:08:53.194Z,96078.57
2019-02-23T06:11:20.733Z,96086.70
2019-02-23T06:13:48.236Z,96090.91
2019-02-23T06:16:15.689Z,96098.14
2019-02-23T06:18:43.257Z,96108.78
2019-02-23T06:21:10.800Z,96119.47
2019-02-23T06:23:38.415Z,96114.81
2019-02-23T06:26:05.965Z,96114.81
2019-02-23T06:28:33.538Z,96126.32
2019-02-23T06:31:01.054Z,96142.88
2019-02-23T06:33:28.484Z,96142.88
2019-02-23T06:35:56.088Z,96151.70
2019-02-23T06:38:23.646Z,96143.05
2019-02-23T06:40:51.090Z,96148.97
2019-02-23T06:43:18.603Z,96153.55
2019-02-23T06:45:46.385Z,96161.92
2019-02-23T06:48:13.784Z,96180.91
2019-02-23T06:50:41.813Z,96180.91
2019-02-23T06:53:09.334Z,96184.70
2019-02-23T06:55:36.819Z,96193.52
2019-02-23T06:58:04.440Z,96193.52
2019-02-23T07:00:32.109Z,96182.84
2019-02-23T07:02:59.648Z,96199.16
2019-02-23T07:05:27.166Z,96200.19
2019-02-23T07:07:54.714Z,96190.55
2019-02-23T07:10:22.680Z,96194.60
2019-02-23T07:12:50.146Z,96194.60
2019-02-23T07:15:17.745Z,96196.86
2019-02-23T07:17:45.261Z,96191.74
2019-02-23T07:20:12.957Z,96196.69
2019-02-23T07:22:40.434Z,96189.63
2019-02-23T07:25:08.180Z,96188.20
2019-02-23T07:27:35.742Z,96194.03
2019-02-23T07:30:03.562Z,96205.66
2019-02-23T07:32:31.065Z,96209.67
2019-02-23T07:34:58.512Z,96219.72
2019-02-23T07:37:25.986Z,96224.42
2019-02-23T07:39:53.573Z,96230.16
2019-02-23T07:42:21.087Z,96244.48
2019-02-23T07:44:48.707Z,96257.11
2019-02-23T07:47:16.256Z,96256.66
2019-02-23T07:49:43.911Z,96262.73
2019-02-23T07:52:11.529Z,96260.53
2019-02-23T07:54:38.988Z,96267.72
2019-02-23T07:57:06.546Z,96274.98
2019-02-23T07:59:34.106Z,96280.16
2019-02-23T08:02:02.698Z,96275.75
2019-02-23T08:04:30.198Z,96285.92
2019-02-23T08:06:57.761Z,96292.44
2019-02-23T08:09:25.209Z,96283.80
2019-02-23T08:11:53.348Z,96285.30
2019-02-23T08:14:20.907Z,96285.30
2019-02-23T08:16:48.567Z,96284.31
2019-02-23T08:19:16.047Z,96282.27
2019-02-23T08:21:44.186Z,96272.56
2019-02-23T08:24:11.701Z,96269.70
2019-02-23T08:26:40.375Z,96294.17
2019-02-23T08:29:07.874Z,96324.16
2019-02-23T08:31:35.460Z,96324.16
2019-02-23T08:34:02.912Z,96324.59
2019-02-23T08:36:30.624Z,96342.39
2019-02-23T08:38:58.184Z,96342.39
2019-02-23T08:41:25.677Z,96342.86
2019-02-23T08:43:53.111Z,96345.38
2019-02-23T08:46:20.641Z,96346.16
2019-02-23T08:48:48.789Z,96353.54
2019-02-23T08:51:16.283Z,96349.76
2019-02-23T08:53:43.826Z,96352.39
2019-02-23T08:56:11.364Z,96354.54
2019-02-23T08:58:39.767Z,96347.15
2019-02-23T09:01:08.662Z,96355.42
2019-02-23T09:03:36.425Z,96366.76
2019-02-23T09:06:03.847Z,96358.43
2019-02-23T09:08:31.402Z,96358.25
2019-02-23T09:10:59.598Z,96370.56
2019-02-23T09:13:27.192Z,96372.95
2019-02-23T09:15:54.723Z,96387.13
2019-02-23T09:18:22.213Z,96365.28
2019-02-23T09:20:51.800Z,96387.98
2019-02-23T09:23:19.329Z,96389.56
2019-02-23T09:25:46.865Z,96383.06
2019-02-23T09:28:14.265Z,96383.06
2019-02-23T09:30:41.845Z,96394.83
2019-02-23T09:33:09.306Z,96394.83
2019-02-23T09:35:36.774Z,96358.61
2019-02-23T09:38:04.370Z,96394.13
2019-02-23T09:40:31.947Z,96403.90
2019-02-23T09:42:59.426Z,96405.48
2019-02-23T09:45:26.831Z,96411.13
2019-02-23T09:47:54.555Z,96421.73
2019-02-23T09:50:22.222Z,96417.38
2019-02-23T09:52:50.206Z,96424.45
2019-02-23T09:55:18.181Z,96413.25
2019-02-23T09:57:45.941Z,96415.83
2019-02-23T10:00:13.637Z,96417.23
2019-02-23T10:02:41.115Z,96417.94
2019-02-23T10:05:08.646Z,96416.22
2019-02-23T10:07:36.222Z,96435.20
2019-02-23T10:10:04.238Z,96416.27
2019-02-23T10:12:32.055Z,96416.06
2019-02-23T10:14:59.510Z,96421.69
2019-02-23T10:17:27.105Z,96430.55
2019-02-23T10:19:54.592Z,96419.53
2019-02-23T10:22:22.075Z,96419.53
2019-02-23T10:24:49.538Z,96440.21
2019-02-23T10:27:17.125Z,96435.47
2019-02-23T10:29:44.581Z,96431.83
2019-02-23T10:32:11.951Z,96434.58
2019-02-23T10:34:39.499Z,96439.34
2019-02-23T10:37:06.953Z,96431.92
2019-02-23T10:39:34.328Z,96419.80
2019-02-23T10:42:01.841Z,96429.27
2019-02-23T10:44:29.354Z,96419.87
2019-02-23T10:46:56.761Z,96420.40
2019-02-23T10:49:24.219Z,96426.86
2019-02-23T10:51:51.682Z,96438.58
2019-02-23T10:54:19.241Z,96428.65
2019-02-23T10:56:46.822Z,96427.75
2019-02-23T10:59:14.307Z,96421.31
2019-02-23T11:01:41.674Z,96420.17
2019-02-23T11:04:09.465Z,96418.72
2019-02-23T11:06:38.522Z,96435.03
2019-02-23T11:09:08.464Z,96432.20
2019-02-23T11:11:36.065Z,96425.29
2019-02-23T11:14:03.452Z,96425.29
2019-02-23T11:16:30.954Z,96444.76
2019-02-23T11:18:58.405Z,96443.64
2019-02-23T11:21:25.877Z,96426.28
2019-02-23T11:23:53.394Z,96432.34
2019-02-23T11:26:20.854Z,96432.34
2019-02-23T11:28:48.403Z,96439.17
2019-02-23T11:31:15.925Z,96427.16
2019-02-23T11:33:43.411Z,96430.80
2019-02-23T11:36:10.877Z,96440.94
2019-02-23T11:38:38.362Z,96430.17
2019-02-23T11:41:05.748Z,96437.81
2019-02-23T11:43:33.481Z,96438.58
2019-02-23T11:46:00.944Z,96434.89
2019-02-23T11:48:28.407Z,96435.69
2019-02-23T11:50:55.859Z,96437.08
2019-02-23T11:53:23.483Z,96432.61
2019-02-23T11:55:50.907Z,96432.31
2019-02-23T11:58:18.709Z,96447.88
2019-02-23T12:00:46.090Z,96435.20
2019-02-23T12:03:13.926Z,96449.59
2019-02-23T12:05:41.367Z,96453.80
2019-02-23T12:08:08.741Z,96447.41
2019-02-23T12:10:36.346Z,96458.33
2019-02-23T12:13:03.872Z,96444.52
2019-02-23T12:15:31.345Z,96456.66
2019-02-23T12:17:58.737Z,96449.92
2019-02-23T12:20:26.192Z,96458.16
2019-02-23T12:22:53.749Z,96452.34
2019-02-23T12:25:21.147Z,96448.72
2019-02-23T12:27:48.606Z,96448.75
2019-02-23T12:30:16.067Z,96456.91
2019-02-23T12:32:43.423Z,96463.55
2019-02-23T12:35:10.978Z,96465.95
2019-02-23T12:37:38.408Z,96467.52
2019-02-23T12:40:06.178Z,96460.88
2019-02-23T12:42:33.666Z,96458.98
2019-02-23T12:45:01.149Z,96473.33
2019-02-23T12:47:28.595Z,96458.56
2019-02-23T12:49:56.091Z,96466.63
2019-02-23T12:52:23.578Z,96464.79
2019-02-23T12:54:51.155Z,96464.79
2019-02-23T12:57:18.612Z,96468.98
2019-02-23T12:59:46.052Z,96469.25
2019-02-23T13:02:13.492Z,96469.25
2019-02-23T13:04:40.947Z,96472.80
2019-02-23T13:07:08.389Z,96470.79
2019-02-23T13:09:39.616Z,96470.79
2019-02-23T13:12:30.086Z,96478.94
2019-02-23T13:15:09.121Z,96478.94
2019-02-23T13:18:11.563Z,96477.94
2019-02-23T13:21:03.846Z,96469.70
2019-02-23T13:24:12.800Z,96471.71
2019-02-23T13:27:05.772Z,96477.23
2019-02-23T13:30:09.012Z,96475.69
2019-02-23T13:33:12.534Z,96483.52
2019-02-23T13:36:08.599Z,96482.09
2019-02-23T13:38:57.438Z,96492.02
2019-02-23T13:42:05.666Z,96489.08
2019-02-23T13:44:53.798Z,96489.70
2019-02-23T13:47:59.145Z,96489.30
2019-02-23T13:51:10.553Z,96490.78
2019-02-23T13:53:56.559Z,96495.28
2019-02-23T13:56:42.049Z,96485.42
2019-02-23T13:59:57.001Z,96497.69
2019-02-23T14:03:15.182Z,96494.23
2019-02-23T14:06:30.594Z,96497.11
2019-02-23T14:09:28.747Z,96498.91
2019-02-23T14:12:11.423Z,96496.66
2019-02-23T14:15:21.015Z,96495.75
2019-02-23T14:18:25.605Z,96508.94
2019-02-23T14:21:40.538Z,96516.08
2019-02-23T14:24:22.333Z,96504.27
2019-02-23T14:27:32.682Z,96514.00
2019-02-23T14:30:28.925Z,96519.23
2019-02-23T14:33:36.679Z,96521.55
2019-02-23T14:36:13.706Z,96521.55
2019-02-23T14:39:41.087Z,96510.24
2019-02-23T14:42:34.211Z,96526.53
2019-02-23T14:45:44.524Z,96526.53
2019-02-23T14:48:34.159Z,96527.99
2019-02-23T14:51:14.017Z,96528.25
2019-02-23T14:54:14.719Z,96527.52
2019-02-23T14:57:10.904Z,96538.63
2019-02-23T15:00:22.102Z,96538.63
2019-02-23T15:03:32.421Z,96532.64
2019-02-23T15:06:35.352Z,96533.28
2019-02-23T15:09:42.964Z,96533.28
2019-02-23T15:12:52.137Z,96542.34
2019-02-23T15:16:03.674Z,96544.34
2019-02-23T15:19:15.120Z,96549.13
2019-02-23T15:22:23.150Z,96559.16
2019-02-23T15:25:17.496Z,96568.73
2019-02-23T15:28:38.734Z,96579.95
2019-02-23T15:31:50.735Z,96579.95
2019-02-23T15:34:46.367Z,96581.62
2019-02-23T15:37:49.719Z,96584.08
2019-02-23T15:40:59.197Z,96584.08
2019-02-23T15:44:08.379Z,96600.70
2019-02-23T15:47:29.818Z,96604.39
2019-02-23T15:49:57.428Z,96604.63
2019-02-23T15:52:24.986Z,96604.63
2019-02-23T15:54:52.410Z,96603.56
2019-02-23T15:57:19.819Z,96609.16
2019-02-23T15:59:47.265Z,96603.66
2019-02-23T16:02:14.727Z,96604.49
2019-02-23T16:04:42.179Z,96606.59
2019-02-23T16:07:09.536Z,96613.51
2019-02-23T16:09:37.097Z,96618.17
2019-02-23T16:12:04.664Z,96613.73
2019-02-23T16:14:32.207Z,96624.06
2019-02-23T16:16:59.713Z,96629.48
2019-02-23T16:19:27.286Z,96633.13
2019-02-23T16:21:54.768Z,96635.92
2019-02-23T16:24:22.535Z,96640.86
2019-02-23T16:26:50.069Z,96645.76
2019-02-23T16:29:17.421Z,96652.67
2019-02-23T16:31:44.847Z,96663.06
2019-02-23T16:34:12.333Z,96660.65
2019-02-23T16:36:39.943Z,96660.75
2019-02-23T16:39:11.318Z,96664.34
2019-02-23T16:41:38.993Z,96673.33
2019-02-23T16:44:07.998Z,96669.82
2019-02-23T16:46:35.763Z,96674.13
2019-02-23T16:49:03.548Z,96681.73
2019-02-23T16:51:31.126Z,96672.65
2019-02-23T16:53:58.560Z,96684.08
2019-02-23T16:56:27.412Z,96685.39
2019-02-23T16:58:55.468Z,96688.55
2019-02-23T17:01:22.931Z,96686.48
2019-02-23T17:03:50.397Z,96688.94
2019-02-23T17:06:17.800Z,96688.94
2019-02-23T17:08:45.307Z,96693.89
2019-02-23T17:11:13.071Z,96694.39
2019-02-23T17:13:40.607Z,96699.80
2019-02-23T17:16:08.630Z,96713.16
2019-02-23T17:18:36.307Z,96707.65
2019-02-23T17:21:03.884Z,96701.69
2019-02-23T17:23:32.139Z,96696.20
2019-02-23T17:26:04.290Z,96702.70
2019-02-23T17:28:29.003Z,96703.08
2019-02-23T17:30:56.634Z,96705.12
2019-02-23T17:33:24.205Z,96709.92
2019-02-23T17:35:51.643Z,96704.64
2019-02-23T17:38:19.039Z,96704.34
2019-02-23T17:40:46.509Z,96707.41
2019-02-23T17:43:13.955Z,96709.50
2019-02-23T17:45:41.395Z,96713.31
2019-02-23T17:48:08.848Z,96713.31
2019-02-23T17:50:36.342Z,96718.09
2019-02-23T17:53:03.957Z,96716.78
2019-02-23T17:55:31.384Z,96707.16
2019-02-23T17:57:58.830Z,96721.91
2019-02-23T18:00:26.240Z,96714.69
2019-02-23T18:02:53.954Z,96721.30
2019-02-23T18:05:21.433Z,96709.33
2019-02-23T18:07:50.281Z,96717.80
2019-02-23T18:10:17.877Z,96719.89
2019-02-23T18:12:45.902Z,96722.51
2019-02-23T18:15:14.124Z,96712.30
2019-02-23T18:17:41.815Z,96724.49
2019-02-23T18:20:10.631Z,96722.80
2019-02-23T18:22:38.131Z,96720.64
2019-02-23T18:25:06.091Z,96725.31
2019-02-23T18:27:33.656Z,96720.64
2019-02-23T18:30:10.776Z,96724.76
2019-02-23T18:32:30.728Z,96718.80
2019-02-23T18:35:00.465Z,96718.80
2019-02-23T18:37:27.659Z,96718.96
2019-02-23T18:39:55.255Z,96734.66
2019-02-23T18:42:22.802Z,96729.05
2019-02-23T18:44:50.288Z,96736.64
2019-02-23T18:47:17.701Z,96735.00
2019-02-23T18:49:45.299Z,96735.69
2019-02-23T18:52:12.884Z,96739.31
2019-02-23T18:54:40.841Z,96746.36
2019-02-23T18:57:08.586Z,96743.91
2019-02-23T18:59:36.118Z,96741.77
2019-02-23T19:02:03.588Z,96743.81
2019-02-23T19:04:31.017Z,96740.64
2019-02-23T19:06:58.445Z,96743.27
2019-02-23T19:09:26.102Z,96743.27
2019-02-23T19:11:53.537Z,96751.03
2019-02-23T19:14:21.078Z,96765.03
2019-02-23T19:16:48.631Z,96761.43
2019-02-23T19:19:16.105Z,96761.43
2019-02-23T19:21:43.685Z,96763.48
2019-02-23T19:24:11.355Z,96763.48
2019-02-23T19:26:38.845Z,96768.34
2019-02-23T19:29:06.290Z,96766.97
2019-02-23T19:31:33.776Z,96771.93
2019-02-23T19:34:01.296Z,96771.93
2019-02-23T19:36:28.876Z,96760.37
2019-02-23T19:38:56.483Z,96778.17
2019-02-23T19:41:23.907Z,96778.17
2019-02-23T19:43:51.650Z,96781.02
2019-02-23T19:46:19.666Z,96773.94
2019-02-23T19:48:47.104Z,96758.88
2019-02-23T19:51:14.623Z,96761.55
2019-02-23T19:53:42.477Z,96754.69
2019-02-23T19:56:10.001Z,96754.69
2019-02-23T19:58:37.909Z,96756.18
2019-02-23T20:01:05.567Z,96754.69
2019-02-23T20:03:32.985Z,96760.58
2019-02-23T20:06:00.441Z,96758.12
2019-02-23T20:08:27.910Z,96757.79
2019-02-23T20:10:55.629Z,96757.79
2019-02-23T20:13:23.135Z,96761.91
2019-02-23T20:15:50.685Z,96748.03
2019-02-23T20:18:18.081Z,96748.03
2019-02-23T20:20:45.544Z,96761.06
2019-02-23T20:23:13.067Z,96771.95
2019-02-23T20:25:40.894Z,96767.91
2019-02-23T20:28:08.986Z,96767.91
2019-02-23T20:30:36.913Z,96769.45
2019-02-23T20:33:04.978Z,96769.45
2019-02-23T20:35:32.825Z,96773.10
2019-02-23T20:38:01.218Z,96780.11
2019-02-23T20:40:29.838Z,96778.94
2019-02-23T20:42:57.489Z,96779.95
2019-02-23T20:45:25.545Z,96770.86
2019-02-23T20:47:53.738Z,96766.13
2019-02-23T20:50:22.005Z,96765.88
2019-02-23T20:52:50.593Z,96765.88
2019-02-23T20:55:18.439Z,96766.80
2019-02-23T20:57:46.768Z,96762.88
2019-02-23T21:00:14.678Z,96762.88
2019-02-23T21:02:42.563Z,96739.30
2019-02-23T21:05:10.688Z,96760.28
2019-02-23T21:07:38.831Z,96761.84
2019-02-23T21:10:08.091Z,96761.84
2019-02-23T21:12:35.902Z,96766.60
2019-02-23T21:15:04.097Z,96750.80
2019-02-23T21:17:32.074Z,96750.80
2019-02-23T21:20:00.229Z,96761.80
2019-02-23T21:22:28.907Z,96758.25
2019-02-23T21:24:57.010Z,96758.52
2019-02-23T21:27:26.055Z,96758.52
2019-02-23T21:29:54.057Z,96756.09
2019-02-23T21:32:22.263Z,96752.11
2019-02-23T21:34:50.262Z,96762.59
2019-02-23T21:37:18.858Z,96750.36
2019-02-23T21:39:46.729Z,96750.87
2019-02-23T21:42:14.103Z,96755.02
2019-02-23T21:44:41.580Z,96745.62
2019-02-23T21:47:09.051Z,96750.75
2019-02-23T21:49:36.610Z,96745.58
2019-02-23T21:52:04.068Z,96748.00
2019-02-23T21:54:31.534Z,96750.83
2019-02-23T21:56:59.056Z,96749.17
2019-02-23T21:59:26.494Z,96758.70
2019-02-23T22:01:53.945Z,96726.30
2019-02-23T22:04:21.454Z,96748.03
2019-02-23T22:06:49.052Z,96748.91
2019-02-23T22:09:17.052Z,96749.17
2019-02-23T22:11:44.517Z,96746.99
2019-02-23T22:14:12.048Z,96742.53
2019-02-23T22:16:39.516Z,96752.38
2019-02-23T22:19:06.962Z,96744.44
2019-02-23T22:21:34.440Z,96748.05
2019-02-23T22:24:02.076Z,96736.64
2019-02-23T22:26:29.633Z,96746.17
2019-02-23T22:28:57.134Z,96749.98
2019-02-23T22:31:24.680Z,96742.61
2019-02-23T22:33:52.085Z,96751.55
2019-02-23T22:36:19.485Z,96741.51
2019-02-23T22:38:46.956Z,96749.01
2019-02-23T22:41:14.417Z,96739.98
2019-02-23T22:43:41.884Z,96749.47
2019-02-23T22:46:09.516Z,96749.47
2019-02-23T22:48:36.906Z,96748.91
2019-02-23T22:51:04.423Z,96743.75
2019-02-23T22:53:31.905Z,96743.75
2019-02-23T22:55:59.344Z,96741.56
2019-02-23T22:58:26.732Z,96735.58
2019-02-23T23:00:59.383Z,96735.58
2019-02-23T23:03:26.909Z,96740.80
2019-02-23T23:05:54.450Z,96747.69
2019-02-23T23:08:21.870Z,96747.69
2019-02-23T23:10:49.290Z,96747.59
2019-02-23T23:13:16.962Z,96735.58
2019-02-23T23:15:44.483Z,96738.44
2019-02-23T23:18:11.978Z,96733.09
2019-02-23T23:20:39.406Z,96733.09
2019-02-23T23:23:06.821Z,96735.41
2019-02-23T23:25:34.186Z,96744.48
2019-02-23T23:28:01.779Z,96733.73
2019-02-23T23:30:29.367Z,96736.31
2019-02-23T23:32:56.840Z,96739.73
2019-02-23T23:35:24.236Z,96739.18
2019-02-23T23:37:51.702Z,96746.86
2019-02-23T23:40:19.145Z,96746.86
2019-02-23T23:42:46.654Z,96742.30
2019-02-23T23:45:14.186Z,96748.91
2019-02-23T23:47:41.652Z,96750.33
2019-02-23T23:50:09.171Z,96755.02
2019-02-23T23:52:36.591Z,96751.59
2019-02-23T23:55:04.085Z,96752.92
2019-02-23T23:57:31.538Z,96742.71
2019-02-23T23:59:58.966Z,96746.01
